sensor_id;sensor_type;location;lat;lon;timestamp;temperature;humidity
45383;DHT22;42455;51.660;5.824;2022-10-03T00:03:45;12.2;93.5
45383;DHT22;42455;51.660;5.824;2022-10-03T00:09:20;12.2;94.0
45383;DHT22;42455;51.660;5.824;2022-10-03T00:15:03;12.2;94.0
45383;DHT22;42455;51.660;5.824;2022-10-03T00:20:02;12.2;94.0
45383;DHT22;42455;51.660;5.824;2022-10-03T00:25:25;12.2;94.0
45383;DHT22;42455;51.660;5.824;2022-10-03T00:30:22;12.1;94.0
45383;DHT22;42455;51.660;5.824;2022-10-03T00:35:29;12.1;94.5
45383;DHT22;42455;51.660;5.824;2022-10-03T00:40:34;12.1;94.5
45383;DHT22;42455;51.660;5.824;2022-10-03T00:48:27;12.1;94.5
45383;DHT22;42455;51.660;5.824;2022-10-03T00:54:12;12.0;94.5
45383;DHT22;42455;51.660;5.824;2022-10-03T01:00:21;12.0;94.5
45383;DHT22;42455;51.660;5.824;2022-10-03T01:01:54;12.0;94.5
45383;DHT22;42455;51.660;5.824;2022-10-03T01:05:29;11.9;94.5
45383;DHT22;42455;51.660;5.824;2022-10-03T01:11:02;11.9;94.5
45383;DHT22;42455;51.660;5.824;2022-10-03T01:16:42;11.9;94.5
45383;DHT22;42455;51.660;5.824;2022-10-03T01:22:11;11.8;94.5
45383;DHT22;42455;51.660;5.824;2022-10-03T01:27:41;11.8;95.0
45383;DHT22;42455;51.660;5.824;2022-10-03T01:30:08;11.8;95.0
45383;DHT22;42455;51.660;5.824;2022-10-03T01:35:02;11.8;95.0
45383;DHT22;42455;51.660;5.824;2022-10-03T01:40:02;11.7;95.0
45383;DHT22;42455;51.660;5.824;2022-10-03T01:45:08;11.7;95.0
45383;DHT22;42455;51.660;5.824;2022-10-03T01:50:26;11.6;95.0
45383;DHT22;42455;51.660;5.824;2022-10-03T01:55:34;11.6;95.0
45383;DHT22;42455;51.660;5.824;2022-10-03T02:00:14;11.6;95.5
45383;DHT22;42455;51.660;5.824;2022-10-03T02:05:37;11.6;95.5
45383;DHT22;42455;51.660;5.824;2022-10-03T02:10:32;11.6;95.5
45383;DHT22;42455;51.660;5.824;2022-10-03T02:15:53;11.5;95.5
45383;DHT22;42455;51.660;5.824;2022-10-03T02:20:50;11.5;95.5
45383;DHT22;42455;51.660;5.824;2022-10-03T02:27:30;11.5;95.5
45383;DHT22;42455;51.660;5.824;2022-10-03T02:34:24;11.5;95.5
45383;DHT22;42455;51.660;5.824;2022-10-03T02:42:25;11.4;95.5
45383;DHT22;42455;51.660;5.824;2022-10-03T02:51:34;11.4;96.0
45383;DHT22;42455;51.660;5.824;2022-10-03T03:00:08;11.4;96.0
45383;DHT22;42455;51.660;5.824;2022-10-03T03:06:49;11.4;96.0
45383;DHT22;42455;51.660;5.824;2022-10-03T03:13:34;11.4;96.0
45383;DHT22;42455;51.660;5.824;2022-10-03T03:19:38;11.4;96.0
45383;DHT22;42455;51.660;5.824;2022-10-03T03:25:37;11.3;96.0
45383;DHT22;42455;51.660;5.824;2022-10-03T03:31:13;11.3;96.0
45383;DHT22;42455;51.660;5.824;2022-10-03T03:36:34;11.3;96.0
45383;DHT22;42455;51.660;5.824;2022-10-03T03:41:55;11.3;96.0
45383;DHT22;42455;51.660;5.824;2022-10-03T03:48:28;11.3;96.0
45383;DHT22;42455;51.660;5.824;2022-10-03T03:54:50;11.3;96.0
45383;DHT22;42455;51.660;5.824;2022-10-03T04:00:47;11.3;96.0
45383;DHT22;42455;51.660;5.824;2022-10-03T04:06:34;11.2;96.0
45383;DHT22;42455;51.660;5.824;2022-10-03T04:12:36;11.2;96.0
45383;DHT22;42455;51.660;5.824;2022-10-03T04:18:31;11.2;96.0
45383;DHT22;42455;51.660;5.824;2022-10-03T04:24:59;11.2;96.0
45383;DHT22;42455;51.660;5.824;2022-10-03T04:30:34;11.1;96.0
45383;DHT22;42455;51.660;5.824;2022-10-03T04:37:20;11.1;96.5
45383;DHT22;42455;51.660;5.824;2022-10-03T04:42:22;11.1;96.5
45383;DHT22;42455;51.660;5.824;2022-10-03T04:47:13;11.1;96.5
45383;DHT22;42455;51.660;5.824;2022-10-03T04:52:05;11.0;96.5
45383;DHT22;42455;51.660;5.824;2022-10-03T04:57:13;11.0;96.5
45383;DHT22;42455;51.660;5.824;2022-10-03T05:01:42;11.0;96.5
45383;DHT22;42455;51.660;5.824;2022-10-03T05:06:58;11.0;96.0
45383;DHT22;42455;51.660;5.824;2022-10-03T05:11:14;10.9;96.5
45383;DHT22;42455;51.660;5.824;2022-10-03T05:16:38;10.9;96.5
45383;DHT22;42455;51.660;5.824;2022-10-03T05:21:08;10.9;96.5
45383;DHT22;42455;51.660;5.824;2022-10-03T05:26:04;10.9;96.5
45383;DHT22;42455;51.660;5.824;2022-10-03T05:31:11;10.8;96.5
45383;DHT22;42455;51.660;5.824;2022-10-03T05:36:44;10.8;96.5
45383;DHT22;42455;51.660;5.824;2022-10-03T05:41:30;10.8;96.5
45383;DHT22;42455;51.660;5.824;2022-10-03T05:46:09;10.8;96.5
45383;DHT22;42455;51.660;5.824;2022-10-03T05:51:47;10.8;96.5
45383;DHT22;42455;51.660;5.824;2022-10-03T05:58:21;10.7;96.5
45383;DHT22;42455;51.660;5.824;2022-10-03T06:05:14;10.7;96.5
45383;DHT22;42455;51.660;5.824;2022-10-03T06:10:42;10.7;96.5
45383;DHT22;42455;51.660;5.824;2022-10-03T06:15:37;10.7;96.5
45383;DHT22;42455;51.660;5.824;2022-10-03T06:21:38;10.7;96.5
45383;DHT22;42455;51.660;5.824;2022-10-03T06:30:42;10.6;96.5
45383;DHT22;42455;51.660;5.824;2022-10-03T06:38:48;10.6;96.5
45383;DHT22;42455;51.660;5.824;2022-10-03T06:47:19;10.5;96.5
45383;DHT22;42455;51.660;5.824;2022-10-03T06:52:52;10.5;96.5
45383;DHT22;42455;51.660;5.824;2022-10-03T07:00:08;10.5;96.5
45383;DHT22;42455;51.660;5.824;2022-10-03T07:07:05;10.5;96.5
45383;DHT22;42455;51.660;5.824;2022-10-03T07:15:14;10.5;96.5
45383;DHT22;42455;51.660;5.824;2022-10-03T07:23:06;10.5;96.5
45383;DHT22;42455;51.660;5.824;2022-10-03T07:30:08;10.5;97.0
45383;DHT22;42455;51.660;5.824;2022-10-03T07:36:21;10.6;97.5
45383;DHT22;42455;51.660;5.824;2022-10-03T07:44:13;10.7;98.5
45383;DHT22;42455;51.660;5.824;2022-10-03T07:50:56;10.9;98.5
45383;DHT22;42455;51.660;5.824;2022-10-03T07:57:08;11.2;98.5
45383;DHT22;42455;51.660;5.824;2022-10-03T08:04:04;11.4;98.5
45383;DHT22;42455;51.660;5.824;2022-10-03T08:09:44;11.6;98.5
45383;DHT22;42455;51.660;5.824;2022-10-03T08:15:39;11.8;98.5
45383;DHT22;42455;51.660;5.824;2022-10-03T08:21:21;11.9;98.5
45383;DHT22;42455;51.660;5.824;2022-10-03T08:27:50;12.1;98.0
45383;DHT22;42455;51.660;5.824;2022-10-03T08:34:38;12.3;98.5
45383;DHT22;42455;51.660;5.824;2022-10-03T08:41:05;12.4;98.0
45383;DHT22;42455;51.660;5.824;2022-10-03T08:49:16;12.6;98.0
45383;DHT22;42455;51.660;5.824;2022-10-03T08:55:23;12.9;97.5
45383;DHT22;42455;51.660;5.824;2022-10-03T08:59:23;13.1;98.0
45383;DHT22;42455;51.660;5.824;2022-10-03T09:07:06;13.3;97.5
45383;DHT22;42455;51.660;5.824;2022-10-03T09:14:39;13.4;97.5
45383;DHT22;42455;51.660;5.824;2022-10-03T09:28:22;13.7;97.5
45383;DHT22;42455;51.660;5.824;2022-10-03T09:35:35;13.9;97.5
45383;DHT22;42455;51.660;5.824;2022-10-03T09:43:00;14.1;98.0
45383;DHT22;42455;51.660;5.824;2022-10-03T09:50:40;14.3;98.0
45383;DHT22;42455;51.660;5.824;2022-10-03T09:58:00;14.6;98.0
45383;DHT22;42455;51.660;5.824;2022-10-03T10:04:59;14.8;97.5
45383;DHT22;42455;51.660;5.824;2022-10-03T10:11:58;15.0;97.5
45383;DHT22;42455;51.660;5.824;2022-10-03T10:19:56;15.2;97.0
45383;DHT22;42455;51.660;5.824;2022-10-03T10:28:02;15.4;97.0
45383;DHT22;42455;51.660;5.824;2022-10-03T10:39:55;15.6;97.0
45383;DHT22;42455;51.660;5.824;2022-10-03T10:52:33;15.9;97.0
45383;DHT22;42455;51.660;5.824;2022-10-03T11:05:15;16.1;96.5
45383;DHT22;42455;51.660;5.824;2022-10-03T11:17:45;16.3;96.0
45383;DHT22;42455;51.660;5.824;2022-10-03T11:30:19;16.5;95.5
45383;DHT22;42455;51.660;5.824;2022-10-03T11:38:26;16.7;95.5
45383;DHT22;42455;51.660;5.824;2022-10-03T11:43:15;16.9;95.5
45383;DHT22;42455;51.660;5.824;2022-10-03T11:48:07;17.1;95.0
45383;DHT22;42455;51.660;5.824;2022-10-03T11:52:40;17.3;94.5
45383;DHT22;42455;51.660;5.824;2022-10-03T11:56:48;17.5;94.5
45383;DHT22;42455;51.660;5.824;2022-10-03T12:00:34;17.7;93.5
45383;DHT22;42455;51.660;5.824;2022-10-03T12:05:26;17.9;93.0
45383;DHT22;42455;51.660;5.824;2022-10-03T12:10:02;18.0;93.0
45383;DHT22;42455;51.660;5.824;2022-10-03T12:14:34;18.2;92.5
45383;DHT22;42455;51.660;5.824;2022-10-03T12:17:34;18.4;92.0
45383;DHT22;42455;51.660;5.824;2022-10-03T12:22:35;18.5;91.5
45383;DHT22;42455;51.660;5.824;2022-10-03T12:25:47;18.6;91.0
45383;DHT22;42455;51.660;5.824;2022-10-03T12:28:59;18.8;91.0
45383;DHT22;42455;51.660;5.824;2022-10-03T12:31:50;18.9;90.5
45383;DHT22;42455;51.660;5.824;2022-10-03T12:36:36;19.0;90.0
45383;DHT22;42455;51.660;5.824;2022-10-03T12:41:55;19.2;90.0
45383;DHT22;42455;51.660;5.824;2022-10-03T12:46:49;19.3;89.0
45383;DHT22;42455;51.660;5.824;2022-10-03T12:51:59;19.5;88.5
45383;DHT22;42455;51.660;5.824;2022-10-03T12:56:49;19.6;87.5
45383;DHT22;42455;51.660;5.824;2022-10-03T13:01:53;19.7;87.0
45383;DHT22;42455;51.660;5.824;2022-10-03T13:06:36;19.7;86.0
45383;DHT22;42455;51.660;5.824;2022-10-03T13:11:57;19.7;85.5
45383;DHT22;42455;51.660;5.824;2022-10-03T13:17:23;19.7;85.0
45383;DHT22;42455;51.660;5.824;2022-10-03T13:21:08;19.7;85.0
45383;DHT22;42455;51.660;5.824;2022-10-03T13:25:38;19.7;85.0
45383;DHT22;42455;51.660;5.824;2022-10-03T13:29:32;19.8;84.5
45383;DHT22;42455;51.660;5.824;2022-10-03T13:33:02;19.9;84.5
45383;DHT22;42455;51.660;5.824;2022-10-03T13:36:53;19.9;84.0
45383;DHT22;42455;51.660;5.824;2022-10-03T13:40:31;20.0;83.5
45383;DHT22;42455;51.660;5.824;2022-10-03T13:43:25;20.2;83.0
45383;DHT22;42455;51.660;5.824;2022-10-03T13:45:37;20.2;82.5
45383;DHT22;42455;51.660;5.824;2022-10-03T13:48:06;20.2;82.0
45383;DHT22;42455;51.660;5.824;2022-10-03T13:50:48;20.2;82.0
45383;DHT22;42455;51.660;5.824;2022-10-03T13:55:17;20.2;82.5
45383;DHT22;42455;51.660;5.824;2022-10-03T13:59:42;20.3;82.5
45383;DHT22;42455;51.660;5.824;2022-10-03T14:04:42;20.4;82.0
45383;DHT22;42455;51.660;5.824;2022-10-03T14:09:50;20.4;81.5
45383;DHT22;42455;51.660;5.824;2022-10-03T14:15:21;20.4;81.0
45383;DHT22;42455;51.660;5.824;2022-10-03T14:20:11;20.4;81.0
45383;DHT22;42455;51.660;5.824;2022-10-03T14:25:36;20.4;80.5
45383;DHT22;42455;51.660;5.824;2022-10-03T14:29:58;20.4;80.5
45383;DHT22;42455;51.660;5.824;2022-10-03T14:33:45;20.6;80.5
45383;DHT22;42455;51.660;5.824;2022-10-03T14:38:32;20.7;80.0
45383;DHT22;42455;51.660;5.824;2022-10-03T14:43:37;20.8;80.0
45383;DHT22;42455;51.660;5.824;2022-10-03T14:46:05;20.8;79.5
45383;DHT22;42455;51.660;5.824;2022-10-03T14:47:21;20.8;79.5
45383;DHT22;42455;51.660;5.824;2022-10-03T14:49:26;20.7;79.0
45383;DHT22;42455;51.660;5.824;2022-10-03T14:51:24;20.6;78.5
45383;DHT22;42455;51.660;5.824;2022-10-03T14:53:37;20.6;78.5
45383;DHT22;42455;51.660;5.824;2022-10-03T14:55:24;20.5;79.0
45383;DHT22;42455;51.660;5.824;2022-10-03T14:57:45;20.6;79.5
45383;DHT22;42455;51.660;5.824;2022-10-03T14:59:36;20.6;79.0
45383;DHT22;42455;51.660;5.824;2022-10-03T15:00:06;20.5;78.5
45383;DHT22;42455;51.660;5.824;2022-10-03T15:01:30;20.5;78.5
45383;DHT22;42455;51.660;5.824;2022-10-03T15:02:46;20.5;78.5
45383;DHT22;42455;51.660;5.824;2022-10-03T15:02:53;20.5;78.5
45383;DHT22;42455;51.660;5.824;2022-10-03T15:04:05;20.5;78.5
45383;DHT22;42455;51.660;5.824;2022-10-03T15:05:21;20.5;78.0
45383;DHT22;42455;51.660;5.824;2022-10-03T15:07:13;20.4;78.0
45383;DHT22;42455;51.660;5.824;2022-10-03T15:08:16;20.3;78.5
45383;DHT22;42455;51.660;5.824;2022-10-03T15:09:53;20.3;78.5
45383;DHT22;42455;51.660;5.824;2022-10-03T15:10:37;20.2;78.5
45383;DHT22;42455;51.660;5.824;2022-10-03T15:12:03;20.1;79.0
45383;DHT22;42455;51.660;5.824;2022-10-03T15:14:13;20.1;79.0
45383;DHT22;42455;51.660;5.824;2022-10-03T15:15:56;20.1;79.0
45383;DHT22;42455;51.660;5.824;2022-10-03T15:18:00;20.0;78.5
45383;DHT22;42455;51.660;5.824;2022-10-03T15:19:52;20.0;78.5
45383;DHT22;42455;51.660;5.824;2022-10-03T15:21:15;20.0;79.0
45383;DHT22;42455;51.660;5.824;2022-10-03T15:22:38;20.0;79.0
45383;DHT22;42455;51.660;5.824;2022-10-03T15:24:42;19.9;79.0
45383;DHT22;42455;51.660;5.824;2022-10-03T15:26:27;19.9;79.5
45383;DHT22;42455;51.660;5.824;2022-10-03T15:28:53;19.9;79.5
45383;DHT22;42455;51.660;5.824;2022-10-03T15:31:31;19.9;79.5
45383;DHT22;42455;51.660;5.824;2022-10-03T15:36:33;19.8;80.0
45383;DHT22;42455;51.660;5.824;2022-10-03T15:41:47;19.8;80.5
45383;DHT22;42455;51.660;5.824;2022-10-03T15:46:47;19.8;80.5
45383;DHT22;42455;51.660;5.824;2022-10-03T15:51:50;19.7;80.5
45383;DHT22;42455;51.660;5.824;2022-10-03T15:56:57;19.7;80.5
45383;DHT22;42455;51.660;5.824;2022-10-03T16:02:07;19.7;81.0
45383;DHT22;42455;51.660;5.824;2022-10-03T16:07:20;19.6;81.0
45383;DHT22;42455;51.660;5.824;2022-10-03T16:12:55;19.5;81.0
45383;DHT22;42455;51.660;5.824;2022-10-03T16:17:46;19.5;81.0
45383;DHT22;42455;51.660;5.824;2022-10-03T16:22:30;19.4;81.5
45383;DHT22;42455;51.660;5.824;2022-10-03T16:27:39;19.4;82.0
45383;DHT22;42455;51.660;5.824;2022-10-03T16:32:43;19.3;82.0
45383;DHT22;42455;51.660;5.824;2022-10-03T16:37:46;19.2;82.5
45383;DHT22;42455;51.660;5.824;2022-10-03T16:42:54;19.2;83.0
45383;DHT22;42455;51.660;5.824;2022-10-03T16:47:59;19.1;83.0
45383;DHT22;42455;51.660;5.824;2022-10-03T16:53:08;19.0;83.5
45383;DHT22;42455;51.660;5.824;2022-10-03T16:58:19;18.9;83.5
45383;DHT22;42455;51.660;5.824;2022-10-03T17:03:21;18.8;84.0
45383;DHT22;42455;51.660;5.824;2022-10-03T17:08:24;18.7;84.5
45383;DHT22;42455;51.660;5.824;2022-10-03T17:13:44;18.6;84.5
45383;DHT22;42455;51.660;5.824;2022-10-03T17:18:41;18.4;84.5
45383;DHT22;42455;51.660;5.824;2022-10-03T17:23:47;18.3;85.0
45383;DHT22;42455;51.660;5.824;2022-10-03T17:28:54;18.1;85.0
45383;DHT22;42455;51.660;5.824;2022-10-03T17:33:56;18.0;85.0
45383;DHT22;42455;51.660;5.824;2022-10-03T17:39:44;17.8;85.5
45383;DHT22;42455;51.660;5.824;2022-10-03T17:44:11;17.6;86.0
45383;DHT22;42455;51.660;5.824;2022-10-03T17:49:52;17.4;86.0
45383;DHT22;42455;51.660;5.824;2022-10-03T17:54:19;17.2;86.5
45383;DHT22;42455;51.660;5.824;2022-10-03T17:59:29;17.1;87.0
45383;DHT22;42455;51.660;5.824;2022-10-03T18:04:31;16.9;87.5
45383;DHT22;42455;51.660;5.824;2022-10-03T18:09:39;16.8;87.5
45383;DHT22;42455;51.660;5.824;2022-10-03T18:14:45;16.7;88.0
45383;DHT22;42455;51.660;5.824;2022-10-03T18:20:25;16.7;88.5
45383;DHT22;42455;51.660;5.824;2022-10-03T18:24:58;16.6;88.5
45383;DHT22;42455;51.660;5.824;2022-10-03T18:30:01;16.5;89.0
45383;DHT22;42455;51.660;5.824;2022-10-03T18:35:14;16.5;89.5
45383;DHT22;42455;51.660;5.824;2022-10-03T18:40:16;16.4;89.5
45383;DHT22;42455;51.660;5.824;2022-10-03T18:45:20;16.4;89.5
45383;DHT22;42455;51.660;5.824;2022-10-03T18:50:29;16.3;90.0
45383;DHT22;42455;51.660;5.824;2022-10-03T18:55:36;16.2;90.0
45383;DHT22;42455;51.660;5.824;2022-10-03T19:00:46;16.1;90.0
45383;DHT22;42455;51.660;5.824;2022-10-03T19:05:52;16.0;90.0
45383;DHT22;42455;51.660;5.824;2022-10-03T19:10:52;15.9;90.5
45383;DHT22;42455;51.660;5.824;2022-10-03T19:16:11;15.8;90.5
45383;DHT22;42455;51.660;5.824;2022-10-03T19:21:13;15.7;91.0
45383;DHT22;42455;51.660;5.824;2022-10-03T19:26:10;15.7;91.0
45383;DHT22;42455;51.660;5.824;2022-10-03T19:31:18;15.6;91.0
45383;DHT22;42455;51.660;5.824;2022-10-03T19:36:21;15.5;91.5
45383;DHT22;42455;51.660;5.824;2022-10-03T19:41:27;15.5;91.5
45383;DHT22;42455;51.660;5.824;2022-10-03T19:46:48;15.4;91.5
45383;DHT22;42455;51.660;5.824;2022-10-03T19:51:37;15.3;91.5
45383;DHT22;42455;51.660;5.824;2022-10-03T19:56:44;15.2;91.5
45383;DHT22;42455;51.660;5.824;2022-10-03T20:01:50;15.2;91.5
45383;DHT22;42455;51.660;5.824;2022-10-03T20:06:57;15.1;92.0
45383;DHT22;42455;51.660;5.824;2022-10-03T20:12:04;15.0;92.0
45383;DHT22;42455;51.660;5.824;2022-10-03T20:17:11;15.0;92.0
45383;DHT22;42455;51.660;5.824;2022-10-03T20:22:15;14.9;92.5
45383;DHT22;42455;51.660;5.824;2022-10-03T20:27:35;14.9;92.5
45383;DHT22;42455;51.660;5.824;2022-10-03T20:32:28;14.9;92.5
45383;DHT22;42455;51.660;5.824;2022-10-03T20:37:52;14.8;92.5
45383;DHT22;42455;51.660;5.824;2022-10-03T20:42:40;14.8;92.5
45383;DHT22;42455;51.660;5.824;2022-10-03T20:47:47;14.8;93.0
45383;DHT22;42455;51.660;5.824;2022-10-03T20:52:56;14.8;93.0
45383;DHT22;42455;51.660;5.824;2022-10-03T20:58:01;14.8;93.0
45383;DHT22;42455;51.660;5.824;2022-10-03T21:03:14;14.8;93.0
45383;DHT22;42455;51.660;5.824;2022-10-03T21:08:15;14.7;93.0
45383;DHT22;42455;51.660;5.824;2022-10-03T21:13:19;14.7;93.0
45383;DHT22;42455;51.660;5.824;2022-10-03T21:18:24;14.7;93.5
45383;DHT22;42455;51.660;5.824;2022-10-03T21:23:29;14.7;93.5
45383;DHT22;42455;51.660;5.824;2022-10-03T21:28:35;14.7;93.5
45383;DHT22;42455;51.660;5.824;2022-10-03T21:33:56;14.7;93.5
45383;DHT22;42455;51.660;5.824;2022-10-03T21:38:48;14.6;93.5
45383;DHT22;42455;51.660;5.824;2022-10-03T21:43:59;14.6;93.5
45383;DHT22;42455;51.660;5.824;2022-10-03T21:49:41;14.6;93.5
45383;DHT22;42455;51.660;5.824;2022-10-03T21:54:51;14.6;93.5
45383;DHT22;42455;51.660;5.824;2022-10-03T22:00:18;14.6;94.0
45383;DHT22;42455;51.660;5.824;2022-10-03T22:05:01;14.5;94.0
45383;DHT22;42455;51.660;5.824;2022-10-03T22:09:23;14.5;94.0
45383;DHT22;42455;51.660;5.824;2022-10-03T22:14:35;14.5;94.0
45383;DHT22;42455;51.660;5.824;2022-10-03T22:19:52;14.5;94.0
45383;DHT22;42455;51.660;5.824;2022-10-03T22:24:54;14.4;94.0
45383;DHT22;42455;51.660;5.824;2022-10-03T22:30:08;14.4;94.0
45383;DHT22;42455;51.660;5.824;2022-10-03T22:35:31;14.4;94.0
45383;DHT22;42455;51.660;5.824;2022-10-03T22:40:01;14.3;94.0
45383;DHT22;42455;51.660;5.824;2022-10-03T22:45:08;14.3;94.0
45383;DHT22;42455;51.660;5.824;2022-10-03T22:50:17;14.2;94.0
45383;DHT22;42455;51.660;5.824;2022-10-03T22:55:21;14.2;94.0
45383;DHT22;42455;51.660;5.824;2022-10-03T23:00:26;14.1;94.0
45383;DHT22;42455;51.660;5.824;2022-10-03T23:05:46;14.1;94.0
45383;DHT22;42455;51.660;5.824;2022-10-03T23:11:02;14.0;94.0
45383;DHT22;42455;51.660;5.824;2022-10-03T23:15:43;14.0;94.0
45383;DHT22;42455;51.660;5.824;2022-10-03T23:21:11;13.9;94.0
45383;DHT22;42455;51.660;5.824;2022-10-03T23:26:47;13.9;94.0
45383;DHT22;42455;51.660;5.824;2022-10-03T23:31:02;13.9;94.5
45383;DHT22;42455;51.660;5.824;2022-10-03T23:36:12;13.9;94.5
45383;DHT22;42455;51.660;5.824;2022-10-03T23:41:14;13.9;94.5
45383;DHT22;42455;51.660;5.824;2022-10-03T23:46:21;13.9;94.5
45383;DHT22;42455;51.660;5.824;2022-10-03T23:51:32;13.9;94.5
45383;DHT22;42455;51.660;5.824;2022-10-03T23:56:40;13.8;95.0
